Time;durP1;ratioP1;P1;durP2;ratioP2;P2;SDS_P1;SDS_P2;PMS_P1;PMS_P2;Temp;Humidity;BMP_temperature;BMP_pressure;BME280_temperature;BME280_humidity;BME280_pressure;Samples;Min_cycle;Max_cycle;Signal;HPM_P1;HPM_P2
2021/04/12 00:01:14;;;;;;;2.80;2.10;;;;;;;;;;5094333;28;20051;-26
2021/04/12 00:03:42;;;;;;;2.60;2.15;;;;;;;;;;5093967;28;20118;-17
2021/04/12 00:06:15;;;;;;;2.45;1.85;;;;;;;;;;5093810;28;20026;-17
2021/04/12 00:08:49;;;;;;;3.90;1.83;;;;;;;;;;5094131;28;20028;-16
2021/04/12 00:11:34;;;;;;;3.05;2.50;;;;;;;;;;5093903;28;20035;-16
2021/04/12 00:14:11;;;;;;;3.80;2.78;;;;;;;;;;5094084;28;20032;-16
2021/04/12 00:16:58;;;;;;;6.28;3.10;;;;;;;;;;5093717;28;20466;-16
2021/04/12 00:19:29;;;;;;;3.35;2.22;;;;;;;;;;5093720;28;20024;-16
2021/04/12 00:22:00;;;;;;;3.28;2.38;;;;;;;;;;5093437;28;20066;-17
2021/04/12 00:24:29;;;;;;;3.67;2.55;;;;;;;;;;5093683;28;20139;-16
2021/04/12 00:27:00;;;;;;;2.65;2.22;;;;;;;;;;5093529;28;20024;-17
2021/04/12 00:29:26;;;;;;;3.42;2.28;;;;;;;;;;5093338;28;20047;-17
2021/04/12 00:32:04;;;;;;;3.50;2.60;;;;;;;;;;5092437;28;20012;-17
2021/04/12 00:34:33;;;;;;;4.15;2.28;;;;;;;;;;5093351;28;20035;-16
2021/04/12 00:37:02;;;;;;;3.30;2.00;;;;;;;;;;5093363;28;20483;-16
2021/04/12 00:39:35;;;;;;;3.38;2.13;;;;;;;;;;5093600;28;20032;-16
2021/04/12 00:42:14;;;;;;;4.13;1.77;;;;;;;;;;5091947;28;20086;-16
2021/04/12 00:44:52;;;;;;;3.40;2.08;;;;;;;;;;5091997;28;20115;-16
2021/04/12 00:47:40;;;;;;;7.07;3.10;;;;;;;;;;5093393;28;20032;-16
2021/04/12 00:50:12;;;;;;;2.50;1.75;;;;;;;;;;5093023;28;20036;-16
2021/04/12 00:53:01;;;;;;;5.07;1.98;;;;;;;;;;5093202;28;20482;-16
2021/04/12 00:55:32;;;;;;;6.57;1.63;;;;;;;;;;5084677;28;20028;-17
2021/04/12 00:58:14;;;;;;;2.95;1.40;;;;;;;;;;5091781;28;20032;-16
2021/04/12 01:00:41;;;;;;;;;;;;;;;;;;5093702;28;20127;-16
2021/04/12 01:03:09;;;;;;;3.65;1.67;;;;;;;;;;5091616;28;20149;-16
2021/04/12 01:05:40;;;;;;;7.40;1.38;;;;;;;;;;5093108;28;20028;-17
2021/04/12 01:08:15;;;;;;;3.47;2.08;;;;;;;;;;5093198;28;20161;-16
2021/04/12 01:10:55;;;;;;;4.68;1.65;;;;;;;;;;5092828;28;20138;-16
2021/04/12 01:13:30;;;;;;;3.28;1.75;;;;;;;;;;5092771;28;20043;-16
2021/04/12 01:16:02;;;;;;;2.92;1.08;;;;;;;;;;5092681;28;20421;-17
2021/04/12 01:18:42;;;;;;;2.63;1.38;;;;;;;;;;5092240;28;20327;-16
2021/04/12 01:21:26;;;;;;;4.13;1.40;;;;;;;;;;5092717;28;20507;-16
2021/04/12 01:24:18;;;;;;;6.47;1.63;;;;;;;;;;5092326;28;20088;-16
2021/04/12 01:26:58;;;;;;;3.05;1.40;;;;;;;;;;5092634;28;20024;-16
2021/04/12 01:29:40;;;;;;;3.17;1.48;;;;;;;;;;5092424;28;20482;-16
2021/04/12 01:32:14;;;;;;;4.95;1.10;;;;;;;;;;5092809;28;20378;-17
2021/04/12 01:34:55;;;;;;;4.68;1.65;;;;;;;;;;5091374;28;20028;-16
2021/04/12 01:37:27;;;;;;;6.03;1.60;;;;;;;;;;5092410;28;20063;-17
2021/04/12 01:40:11;;;;;;;6.05;1.90;;;;;;;;;;5092440;28;20024;-16
2021/04/12 01:42:39;;;;;;;6.10;1.60;;;;;;;;;;5091988;28;20077;-16
2021/04/12 01:45:15;;;;;;;6.22;1.77;;;;;;;;;;5092377;28;20012;-16
2021/04/12 01:47:43;;;;;;;3.40;1.45;;;;;;;;;;5092649;28;20445;-16
2021/04/12 01:50:27;;;;;;;4.50;1.52;;;;;;;;;;5092493;28;20066;-17
2021/04/12 01:53:28;;;;;;;4.95;2.35;;;;;;;;;;5092353;28;20047;-16
2021/04/12 01:56:03;;;;;;;2.58;1.48;;;;;;;;;;5013356;28;20033;-16
2021/04/12 01:58:43;;;;;;;3.85;2.35;;;;;;;;;;5083197;28;20067;-16
2021/04/12 02:01:09;;;;;;;10.93;2.30;;;;;;;;;;5092441;28;20024;-17
2021/04/12 02:03:52;;;;;;;5.00;1.98;;;;;;;;;;5092229;28;20378;-17
2021/04/12 02:06:18;;;;;;;5.53;1.60;;;;;;;;;;5092309;28;20036;-16
2021/04/12 02:08:49;;;;;;;2.72;1.63;;;;;;;;;;5092359;28;20173;-16
2021/04/12 02:11:33;;;;;;;3.00;1.80;;;;;;;;;;5090850;28;20041;-16
2021/04/12 02:14:17;;;;;;;5.25;1.98;;;;;;;;;;5090815;28;20074;-16
2021/04/12 02:16:45;;;;;;;6.28;1.70;;;;;;;;;;5092025;28;20024;-17
2021/04/12 02:19:30;;;;;;;3.65;1.63;;;;;;;;;;5091953;28;20024;-16
2021/04/12 02:22:04;;;;;;;4.20;2.10;;;;;;;;;;5091772;28;20024;-16
2021/04/12 02:24:33;;;;;;;8.90;2.22;;;;;;;;;;5092308;28;20059;-16
2021/04/12 02:27:03;;;;;;;4.22;1.65;;;;;;;;;;5092284;28;20390;-17
2021/04/12 02:29:37;;;;;;;6.43;1.98;;;;;;;;;;5091777;28;20064;-16
2021/04/12 02:32:03;;;;;;;6.03;1.55;;;;;;;;;;5091976;28;20482;-16
2021/04/12 02:34:43;;;;;;;5.10;2.10;;;;;;;;;;5090589;28;20016;-16
2021/04/12 02:37:09;;;;;;;3.30;1.85;;;;;;;;;;5091747;28;20070;-16
2021/04/12 02:39:40;;;;;;;2.72;1.60;;;;;;;;;;5092216;28;20020;-17
2021/04/12 02:42:35;;;;;;;4.93;1.77;;;;;;;;;;5091881;28;20030;-16
2021/04/12 02:45:19;;;;;;;5.43;1.63;;;;;;;;;;5078374;28;20666;-17
2021/04/12 02:48:00;;;;;;;11.60;1.92;;;;;;;;;;5092135;28;20024;-16
2021/04/12 02:50:33;;;;;;;3.63;2.17;;;;;;;;;;5091590;28;20067;-16
2021/04/12 02:53:17;;;;;;;6.93;2.38;;;;;;;;;;5091792;28;20497;-17
2021/04/12 02:55:43;;;;;;;3.45;1.90;;;;;;;;;;5094465;28;20024;-17
2021/04/12 02:58:08;;;;;;;4.25;1.70;;;;;;;;;;5095547;28;20104;-17
2021/04/12 03:00:52;;;;;;;5.22;1.73;;;;;;;;;;5095563;28;20532;-16
2021/04/12 03:03:20;;;;;;;4.75;1.98;;;;;;;;;;5095238;28;20115;-17
2021/04/12 03:05:55;;;;;;;6.57;2.20;;;;;;;;;;5095047;28;20528;-17
2021/04/12 03:08:34;;;;;;;4.20;2.35;;;;;;;;;;5095004;28;20036;-17
2021/04/12 03:11:18;;;;;;;4.47;1.33;;;;;;;;;;5095043;28;20032;-16
2021/04/12 03:14:02;;;;;;;2.13;1.05;;;;;;;;;;5095057;28;20032;-17
2021/04/12 03:16:28;;;;;;;8.40;1.55;;;;;;;;;;5095162;28;20394;-16
2021/04/12 03:19:02;;;;;;;1.15;1.00;;;;;;;;;;5094863;28;20035;-16
2021/04/12 03:21:42;;;;;;;1.88;1.10;;;;;;;;;;5095119;28;20114;-24
2021/04/12 03:24:23;;;;;;;3.47;1.00;;;;;;;;;;5094634;28;20063;-26
2021/04/12 03:27:07;;;;;;;1.42;1.10;;;;;;;;;;5094982;28;20078;-16
2021/04/12 03:29:45;;;;;;;2.95;0.65;;;;;;;;;;5094864;28;20036;-16
2021/04/12 03:32:13;;;;;;;1.25;0.80;;;;;;;;;;5094822;28;20071;-16
2021/04/12 03:34:57;;;;;;;1.95;0.93;;;;;;;;;;5094929;28;20055;-17
2021/04/12 03:37:41;;;;;;;0.90;0.80;;;;;;;;;;5094546;28;20104;-16
2021/04/12 03:40:18;;;;;;;1.70;0.90;;;;;;;;;;5094524;28;20063;-16
2021/04/12 03:42:51;;;;;;;0.95;0.65;;;;;;;;;;5094749;28;20032;-16
2021/04/12 03:45:35;;;;;;;1.00;0.82;;;;;;;;;;5094565;28;20028;-16
2021/04/12 03:48:00;;;;;;;1.85;0.85;;;;;;;;;;5094603;28;20051;-17
2021/04/12 03:50:35;;;;;;;1.80;0.95;;;;;;;;;;5094117;28;20070;-17
2021/04/12 03:53:18;;;;;;;1.45;0.80;;;;;;;;;;5094350;28;20052;-17
2021/04/12 03:55:56;;;;;;;0.77;0.40;;;;;;;;;;5094443;28;20024;-17
2021/04/12 03:58:39;;;;;;;0.68;0.50;;;;;;;;;;5092826;28;20042;-17
2021/04/12 04:01:28;;;;;;;0.47;0.40;;;;;;;;;;5094152;28;20020;-17
2021/04/12 04:04:02;;;;;;;0.70;0.57;;;;;;;;;;5094451;28;20150;-17
2021/04/12 04:06:40;;;;;;;0.50;0.40;;;;;;;;;;5093536;28;20128;-17
2021/04/12 04:09:13;;;;;;;2.50;0.85;;;;;;;;;;5094173;28;20429;-17
2021/04/12 04:12:02;;;;;;;0.85;0.65;;;;;;;;;;5093911;28;20028;-17
2021/04/12 04:14:46;;;;;;;0.70;0.55;;;;;;;;;;5064879;28;20040;-17
2021/04/12 04:17:27;;;;;;;1.08;0.57;;;;;;;;;;5093895;28;20379;-17
2021/04/12 04:20:05;;;;;;;0.60;0.45;;;;;;;;;;5093762;28;20035;-17
2021/04/12 04:22:57;;;;;;;1.45;0.82;;;;;;;;;;5093492;28;20123;-17
2021/04/12 04:25:28;;;;;;;0.90;0.73;;;;;;;;;;5069023;28;20039;-17
2021/04/12 04:28:03;;;;;;;0.40;0.40;;;;;;;;;;5093574;28;20024;-17
2021/04/12 04:30:46;;;;;;;1.23;0.90;;;;;;;;;;5093262;28;20523;-17
2021/04/12 04:33:11;;;;;;;;;;;;;;;;;;5093917;28;20024;-17
2021/04/12 04:35:51;;;;;;;1.88;0.80;;;;;;;;;;5093507;28;19908;-17
2021/04/12 04:38:26;;;;;;;5.95;1.08;;;;;;;;;;5093564;28;20054;-17
2021/04/12 04:41:10;;;;;;;1.25;1.05;;;;;;;;;;5093412;28;20497;-17
2021/04/12 04:43:39;;;;;;;0.80;0.63;;;;;;;;;;5093254;28;20467;-17
2021/04/12 04:46:23;;;;;;;1.90;0.77;;;;;;;;;;5093114;28;20532;-17
2021/04/12 04:48:51;;;;;;;0.93;0.63;;;;;;;;;;5093455;28;20054;-26
2021/04/12 04:51:17;;;;;;;2.28;0.70;;;;;;;;;;5093061;28;20027;-17
2021/04/12 04:53:57;;;;;;;1.80;0.77;;;;;;;;;;5093401;28;20032;-17
2021/04/12 04:56:36;;;;;;;1.42;0.95;;;;;;;;;;5091636;28;20032;-17
2021/04/12 04:59:19;;;;;;;3.53;0.55;;;;;;;;;;5092031;28;20107;-17
2021/04/12 05:02:03;;;;;;;2.63;0.70;;;;;;;;;;5093308;28;20073;-17
2021/04/12 05:04:29;;;;;;;0.70;0.60;;;;;;;;;;5093060;28;20028;-17
2021/04/12 05:07:22;;;;;;;2.03;1.00;;;;;;;;;;5092882;28;20008;-17
2021/04/12 05:10:03;;;;;;;1.90;0.80;;;;;;;;;;5092853;28;20044;-17
2021/04/12 05:12:35;;;;;;;3.42;0.65;;;;;;;;;;5091867;28;20028;-17
2021/04/12 05:15:12;;;;;;;1.33;0.70;;;;;;;;;;5092725;28;20028;-17
2021/04/12 05:17:47;;;;;;;2.22;0.93;;;;;;;;;;5092078;28;20039;-17
2021/04/12 05:20:32;;;;;;;2.33;0.90;;;;;;;;;;5092607;28;20386;-17
2021/04/12 05:23:17;;;;;;;6.60;1.13;;;;;;;;;;5092463;28;20056;-17
2021/04/12 05:25:42;;;;;;;1.40;1.05;;;;;;;;;;5092766;28;20031;-17
2021/04/12 05:28:24;;;;;;;1.17;0.82;;;;;;;;;;5091617;28;20028;-16
2021/04/12 05:30:59;;;;;;;1.00;0.70;;;;;;;;;;5092591;28;20044;-16
2021/04/12 05:33:27;;;;;;;1.50;0.88;;;;;;;;;;5092710;28;20104;-16
2021/04/12 05:35:53;;;;;;;0.60;0.60;;;;;;;;;;5092507;28;20489;-17
2021/04/12 05:38:37;;;;;;;2.05;0.80;;;;;;;;;;5092458;28;20024;-16
2021/04/12 05:41:21;;;;;;;3.58;1.05;;;;;;;;;;5092674;28;20386;-16
2021/04/12 05:43:55;;;;;;;3.67;0.63;;;;;;;;;;5092545;28;20028;-17
2021/04/12 05:46:30;;;;;;;2.17;1.20;;;;;;;;;;5092246;28;20024;-16
2021/04/12 05:49:15;;;;;;;4.03;1.05;;;;;;;;;;5092326;28;20134;-17
2021/04/12 05:51:50;;;;;;;4.93;1.45;;;;;;;;;;5092429;28;20035;-17
2021/04/12 05:54:24;;;;;;;0.90;0.82;;;;;;;;;;5092517;28;20431;-17
2021/04/12 05:56:50;;;;;;;1.08;0.88;;;;;;;;;;5092297;28;20028;-17
2021/04/12 05:59:21;;;;;;;1.02;0.90;;;;;;;;;;5092327;28;20016;-17
2021/04/12 06:02:05;;;;;;;1.95;1.05;;;;;;;;;;5092478;28;20035;-16
2021/04/12 06:04:42;;;;;;;4.00;0.98;;;;;;;;;;5092197;28;20406;-17
2021/04/12 06:07:26;;;;;;;2.25;0.98;;;;;;;;;;5092237;28;20024;-16
2021/04/12 06:09:51;;;;;;;3.28;0.65;;;;;;;;;;5092362;28;20040;-16
2021/04/12 06:12:20;;;;;;;2.00;1.38;;;;;;;;;;5092128;28;20569;-16
2021/04/12 06:14:55;;;;;;;1.10;0.82;;;;;;;;;;5090842;28;20034;-17
2021/04/12 06:17:32;;;;;;;1.45;0.93;;;;;;;;;;5091902;28;20567;-16
2021/04/12 06:20:17;;;;;;;1.58;1.15;;;;;;;;;;5092067;28;20047;-17
2021/04/12 06:23:05;;;;;;;1.70;0.68;;;;;;;;;;5091926;28;20047;-16
2021/04/12 06:25:51;;;;;;;0.95;0.50;;;;;;;;;;5091980;28;20063;-16
2021/04/12 06:28:26;;;;;;;0.90;0.63;;;;;;;;;;5092814;28;20039;-18
2021/04/12 06:31:09;;;;;;;3.60;0.60;;;;;;;;;;5096071;28;20032;-16
2021/04/12 06:33:42;;;;;;;2.05;0.40;;;;;;;;;;5096082;28;20063;-17
2021/04/12 06:36:07;;;;;;;0.43;0.43;;;;;;;;;;5095787;28;20028;-17
2021/04/12 06:38:48;;;;;;;0.98;0.65;;;;;;;;;;5095870;28;20424;-19
2021/04/12 06:41:32;;;;;;;0.50;0.45;;;;;;;;;;5095476;28;20128;-16
2021/04/12 06:44:06;;;;;;;1.90;0.90;;;;;;;;;;5095958;28;20395;-16
2021/04/12 06:46:50;;;;;;;1.00;0.80;;;;;;;;;;5095509;28;20035;-17
2021/04/12 06:49:25;;;;;;;0.52;0.52;;;;;;;;;;5095627;28;20047;-16
2021/04/12 06:52:09;;;;;;;0.73;0.57;;;;;;;;;;5095537;28;20027;-16
2021/04/12 06:55:04;;;;;;;0.50;0.50;;;;;;;;;;5095319;28;20028;-16
2021/04/12 06:57:48;;;;;;;1.70;0.68;;;;;;;;;;5095394;28;20028;-16
2021/04/12 07:00:25;;;;;;;1.67;0.80;;;;;;;;;;5095308;28;20449;-16
2021/04/12 07:02:57;;;;;;;1.02;0.85;;;;;;;;;;5095363;28;20028;-16
2021/04/12 07:05:41;;;;;;;0.73;0.57;;;;;;;;;;5095091;28;20040;-16
2021/04/12 07:08:16;;;;;;;3.65;0.80;;;;;;;;;;5095570;28;20024;-16
2021/04/12 07:10:44;;;;;;;0.70;0.70;;;;;;;;;;5093840;28;20486;-16
2021/04/12 07:13:12;;;;;;;0.77;0.52;;;;;;;;;;5095090;28;20443;-16
2021/04/12 07:15:57;;;;;;;1.27;0.68;;;;;;;;;;5093743;28;20160;-17
2021/04/12 07:18:34;;;;;;;0.43;0.43;;;;;;;;;;5094932;28;20028;-15
2021/04/12 07:21:05;;;;;;;0.73;0.47;;;;;;;;;;5094887;28;20445;-16
2021/04/12 07:23:31;;;;;;;0.85;0.43;;;;;;;;;;5094684;28;20056;-16
2021/04/12 07:26:08;;;;;;;2.67;0.90;;;;;;;;;;5095133;28;20416;-16
2021/04/12 07:28:53;;;;;;;0.47;0.47;;;;;;;;;;5094956;28;20112;-16
2021/04/12 07:31:38;;;;;;;0.90;0.73;;;;;;;;;;5093398;28;20028;-16
2021/04/12 07:34:21;;;;;;;1.20;0.82;;;;;;;;;;5093366;28;20024;-16
2021/04/12 07:37:06;;;;;;;1.75;0.73;;;;;;;;;;5094561;28;20032;-16
2021/04/12 07:39:43;;;;;;;2.50;0.65;;;;;;;;;;5094403;28;20054;-16
2021/04/12 07:42:27;;;;;;;0.63;0.63;;;;;;;;;;5094442;28;20032;-16
2021/04/12 07:45:12;;;;;;;0.95;0.68;;;;;;;;;;5094775;28;20027;-15
2021/04/12 07:47:55;;;;;;;0.68;0.50;;;;;;;;;;5094405;28;20111;-16
2021/04/12 07:50:24;;;;;;;0.50;0.50;;;;;;;;;;5094125;28;20040;-16
2021/04/12 07:52:55;;;;;;;3.40;0.65;;;;;;;;;;5094698;28;20012;-16
2021/04/12 07:55:42;;;;;;;0.15;0.15;;;;;;;;;;5094255;28;20024;-16
2021/04/12 07:58:27;;;;;;;1.70;0.68;;;;;;;;;;5093049;28;20386;-16
2021/04/12 08:01:02;;;;;;;3.03;0.50;;;;;;;;;;5094179;28;20459;-16
2021/04/12 08:03:39;;;;;;;3.20;0.60;;;;;;;;;;5093972;28;20529;-16
2021/04/12 08:06:23;;;;;;;2.22;0.65;;;;;;;;;;5093971;28;20024;-15
2021/04/12 08:08:52;;;;;;;0.98;0.70;;;;;;;;;;5094270;28;20036;-15
2021/04/12 08:11:20;;;;;;;0.65;0.57;;;;;;;;;;5094126;28;20028;-16
2021/04/12 08:14:04;;;;;;;1.70;0.80;;;;;;;;;;5092574;28;20119;-16
2021/04/12 08:16:42;;;;;;;0.75;0.60;;;;;;;;;;5094005;28;20028;-16
2021/04/12 08:19:19;;;;;;;0.93;0.57;;;;;;;;;;5093984;28;20035;-17
2021/04/12 08:21:44;;;;;;;2.58;0.80;;;;;;;;;;5093610;28;20107;-17
2021/04/12 08:24:12;;;;;;;0.77;0.52;;;;;;;;;;5093682;28;20078;-16
2021/04/12 08:26:57;;;;;;;1.55;0.63;;;;;;;;;;5093918;28;20051;-16
2021/04/12 08:29:25;;;;;;;5.15;0.68;;;;;;;;;;5092130;28;20406;-16
2021/04/12 08:32:03;;;;;;;1.45;0.93;;;;;;;;;;5093583;28;20016;-16
2021/04/12 08:34:28;;;;;;;0.98;0.75;;;;;;;;;;5093356;28;20039;-16
2021/04/12 08:37:00;;;;;;;6.38;0.77;;;;;;;;;;5093473;28;20104;-16
2021/04/12 08:39:44;;;;;;;2.58;0.82;;;;;;;;;;5093346;28;20047;-16
2021/04/12 08:42:28;;;;;;;1.60;0.60;;;;;;;;;;5093376;28;20024;-16
2021/04/12 08:45:04;;;;;;;0.88;0.52;;;;;;;;;;5093409;28;20020;-17
2021/04/12 08:47:45;;;;;;;0.65;0.43;;;;;;;;;;5093522;28;20382;-16
2021/04/12 08:50:34;;;;;;;0.77;0.70;;;;;;;;;;5093194;28;20035;-16
2021/04/12 08:53:02;;;;;;;0.85;0.50;;;;;;;;;;5083981;28;20075;-16
2021/04/12 08:55:46;;;;;;;0.55;0.40;;;;;;;;;;5093222;28;20419;-16
2021/04/12 08:58:18;;;;;;;0.43;0.30;;;;;;;;;;5093392;28;20120;-16
2021/04/12 09:01:11;;;;;;;0.40;0.30;;;;;;;;;;5093364;28;20385;-15
2021/04/12 09:03:55;;;;;;;0.47;0.40;;;;;;;;;;5093038;28;20064;-16
2021/04/12 09:06:21;;;;;;;1.10;0.60;;;;;;;;;;5092851;28;20032;-15
2021/04/12 09:09:06;;;;;;;0.80;0.60;;;;;;;;;;5093108;28;20020;-16
2021/04/12 09:11:44;;;;;;;1.23;0.50;;;;;;;;;;5081869;28;20064;-16
2021/04/12 09:14:28;;;;;;;2.35;0.25;;;;;;;;;;5092834;28;20032;-16
2021/04/12 09:17:32;;;;;;;0.50;0.40;;;;;;;;;;5092785;28;20495;-17
2021/04/12 09:20:00;;;;;;;1.23;0.40;;;;;;;;;;5030250;28;20512;-16
2021/04/12 09:22:59;;;;;;;0.47;0.40;;;;;;;;;;5029947;28;20053;-15
2021/04/12 09:25:43;;;;;;;0.63;0.63;;;;;;;;;;5074068;28;20040;-16
2021/04/12 09:28:27;;;;;;;2.85;1.95;;;;;;;;;;5092661;28;20043;-16
2021/04/12 09:30:59;;;;;;;0.57;0.50;;;;;;;;;;5092854;28;20036;-15
2021/04/12 09:33:42;;;;;;;4.03;0.80;;;;;;;;;;5092567;28;20460;-16
2021/04/12 09:36:08;;;;;;;0.10;0.10;;;;;;;;;;5092416;28;20032;-15
2021/04/12 09:38:52;;;;;;;0.20;0.20;;;;;;;;;;5092463;28;20066;-16
2021/04/12 09:41:36;;;;;;;0.52;0.40;;;;;;;;;;5092628;28;20020;-16
2021/04/12 09:44:20;;;;;;;0.28;0.28;;;;;;;;;;5092443;28;20145;-16
2021/04/12 09:46:46;;;;;;;0.32;0.20;;;;;;;;;;5092449;28;20038;-15
2021/04/12 09:49:23;;;;;;;0.95;0.20;;;;;;;;;;5092332;28;20032;-16
2021/04/12 09:51:51;;;;;;;0.30;0.30;;;;;;;;;;5091117;28;20028;-17
2021/04/12 09:54:43;;;;;;;1.02;0.30;;;;;;;;;;5092445;28;20020;-16
2021/04/12 09:57:08;;;;;;;0.45;0.40;;;;;;;;;;5087940;28;20071;-16
2021/04/12 09:59:53;;;;;;;0.50;0.30;;;;;;;;;;5092497;28;20052;-17
2021/04/12 10:02:36;;;;;;;0.70;0.35;;;;;;;;;;5092169;28;20032;-16
2021/04/12 10:05:05;;;;;;;7.30;0.50;;;;;;;;;;5096142;28;20429;-17
2021/04/12 10:07:50;;;;;;;0.68;0.50;;;;;;;;;;5096199;28;20030;-16
2021/04/12 10:10:19;;;;;;;0.60;0.55;;;;;;;;;;5096248;28;20039;-16
2021/04/12 10:13:03;;;;;;;1.20;0.30;;;;;;;;;;5096275;28;20020;-17
2021/04/12 10:15:29;;;;;;;0.40;0.30;;;;;;;;;;5096364;28;20078;-16
2021/04/12 10:18:02;;;;;;;0.45;0.20;;;;;;;;;;5094741;28;20474;-16
2021/04/12 10:20:33;;;;;;;0.30;0.20;;;;;;;;;;5096114;28;20032;-16
2021/04/12 10:23:00;;;;;;;0.30;0.20;;;;;;;;;;5095973;28;20091;-16
2021/04/12 10:25:27;;;;;;;0.30;0.20;;;;;;;;;;5094950;28;20028;-15
2021/04/12 10:27:56;;;;;;;0.75;0.40;;;;;;;;;;5095960;28;20033;-15
2021/04/12 10:30:28;;;;;;;0.95;0.40;;;;;;;;;;5095798;28;20031;-16
2021/04/12 10:32:58;;;;;;;0.70;0.50;;;;;;;;;;5096051;28;20090;-16
2021/04/12 10:35:41;;;;;;;1.27;0.60;;;;;;;;;;5096010;28;20028;-16
2021/04/12 10:38:21;;;;;;;0.20;0.20;;;;;;;;;;5095842;28;20474;-15
2021/04/12 10:41:04;;;;;;;0.55;0.30;;;;;;;;;;5095785;28;20478;-15
2021/04/12 10:43:32;;;;;;;1.58;0.38;;;;;;;;;;5095746;28;20028;-16
2021/04/12 10:45:58;;;;;;;0.50;0.40;;;;;;;;;;5095683;28;20024;-16
2021/04/12 10:48:30;;;;;;;0.80;0.40;;;;;;;;;;5095429;28;20039;-15
2021/04/12 10:51:01;;;;;;;1.13;0.50;;;;;;;;;;5095916;28;20542;-16
2021/04/12 10:53:35;;;;;;;0.25;0.20;;;;;;;;;;5095625;28;20028;-16
2021/04/12 10:56:00;;;;;;;0.45;0.40;;;;;;;;;;5095687;28;20390;-16
2021/04/12 10:58:26;;;;;;;0.20;0.20;;;;;;;;;;5095383;28;20012;-16
2021/04/12 11:01:04;;;;;;;0.30;0.30;;;;;;;;;;5095385;28;20391;-16
2021/04/12 11:03:45;;;;;;;1.33;0.40;;;;;;;;;;5095211;28;20040;-16
2021/04/12 11:06:19;;;;;;;1.55;0.50;;;;;;;;;;5093952;28;20020;-16
2021/04/12 11:08:54;;;;;;;0.20;0.20;;;;;;;;;;5095106;28;20031;-15
2021/04/12 11:11:23;;;;;;;0.50;0.28;;;;;;;;;;5095433;28;20024;-16
2021/04/12 11:13:53;;;;;;;1.95;0.40;;;;;;;;;;5095335;28;20024;-16
2021/04/12 11:16:22;;;;;;;0.63;0.40;;;;;;;;;;5092673;28;20382;-16
2021/04/12 11:18:47;;;;;;;0.35;0.20;;;;;;;;;;5095317;28;20028;-16
2021/04/12 11:21:19;;;;;;;1.00;0.40;;;;;;;;;;5095304;28;20554;-16
2021/04/12 11:23:58;;;;;;;0.38;0.35;;;;;;;;;;5094785;28;20044;-16
2021/04/12 11:26:25;;;;;;;0.55;0.50;;;;;;;;;;5094767;28;20073;-16
2021/04/12 11:28:58;;;;;;;1.95;0.57;;;;;;;;;;5095032;28;20105;-15
2021/04/12 11:31:23;;;;;;;0.20;0.20;;;;;;;;;;5094977;28;20032;-16
2021/04/12 11:33:54;;;;;;;0.40;0.30;;;;;;;;;;5094816;28;20413;-16
2021/04/12 11:36:28;;;;;;;1.02;0.80;;;;;;;;;;5094880;28;20024;-16
2021/04/12 11:38:56;;;;;;;2.38;0.20;;;;;;;;;;5095008;28;20031;-16
2021/04/12 11:41:24;;;;;;;1.50;0.32;;;;;;;;;;5094470;28;20078;-16
2021/04/12 11:43:51;;;;;;;1.08;0.40;;;;;;;;;;5094516;28;20486;-15
2021/04/12 11:46:24;;;;;;;0.63;0.43;;;;;;;;;;5092999;28;20122;-16
2021/04/12 11:48:52;;;;;;;0.82;0.40;;;;;;;;;;5094676;28;20093;-16
2021/04/12 11:51:38;;;;;;;3.42;0.25;;;;;;;;;;5094503;28;20344;-16
2021/04/12 11:54:05;;;;;;;2.13;0.43;;;;;;;;;;5083321;28;20035;-16
2021/04/12 11:57:00;;;;;;;0.38;0.35;;;;;;;;;;5094269;28;20020;-16
2021/04/12 11:59:44;;;;;;;5.40;0.52;;;;;;;;;;5080732;28;20047;-16
2021/04/12 12:02:28;;;;;;;0.50;0.50;;;;;;;;;;5094469;28;20020;-15
2021/04/12 12:04:57;;;;;;;0.65;0.32;;;;;;;;;;5094341;28;20043;-15
2021/04/12 12:07:36;;;;;;;0.70;0.50;;;;;;;;;;5094031;28;20050;-16
2021/04/12 12:10:01;;;;;;;0.52;0.43;;;;;;;;;;5094239;28;20050;-15
2021/04/12 12:12:26;;;;;;;0.68;0.40;;;;;;;;;;5093951;28;20378;-15
2021/04/12 12:15:11;;;;;;;4.93;0.40;;;;;;;;;;5094169;28;20036;-16
2021/04/12 12:17:55;;;;;;;0.20;0.20;;;;;;;;;;5093727;28;20079;-16
2021/04/12 12:20:24;;;;;;;0.75;0.45;;;;;;;;;;5093945;28;20101;-16
2021/04/12 12:22:49;;;;;;;0.25;0.20;;;;;;;;;;5093761;28;20399;-16
2021/04/12 12:25:24;;;;;;;1.65;0.40;;;;;;;;;;5092237;28;20032;-16
2021/04/12 12:28:09;;;;;;;1.52;0.73;;;;;;;;;;5093395;28;20053;-17
2021/04/12 12:30:43;;;;;;;0.50;0.22;;;;;;;;;;5093545;28;20046;-16
2021/04/12 12:33:17;;;;;;;1.58;0.30;;;;;;;;;;5093854;28;20036;-16
2021/04/12 12:35:46;;;;;;;5.03;0.50;;;;;;;;;;5093782;28;20044;-16
2021/04/12 12:38:32;;;;;;;1.33;0.40;;;;;;;;;;5093463;28;20481;-16
2021/04/12 12:40:59;;;;;;;0.63;0.30;;;;;;;;;;5082506;28;20087;-17
2021/04/12 12:43:27;;;;;;;1.83;0.60;;;;;;;;;;5093930;28;20020;-16
2021/04/12 12:45:54;;;;;;;0.70;0.40;;;;;;;;;;5093247;28;20040;-16
2021/04/12 12:48:21;;;;;;;0.38;0.35;;;;;;;;;;5091866;28;20481;-16
2021/04/12 12:50:46;;;;;;;1.30;0.40;;;;;;;;;;5093550;28;20036;-16
2021/04/12 12:53:15;;;;;;;1.75;0.47;;;;;;;;;;5093471;28;20081;-16
2021/04/12 12:55:46;;;;;;;0.85;0.40;;;;;;;;;;5093144;28;20020;-16
2021/04/12 12:58:16;;;;;;;1.63;0.50;;;;;;;;;;5093212;28;20036;-16
2021/04/12 13:00:46;;;;;;;0.63;0.47;;;;;;;;;;5093144;28;20107;-16
2021/04/12 13:03:28;;;;;;;1.42;0.38;;;;;;;;;;5091746;28;20032;-16
2021/04/12 13:05:54;;;;;;;1.17;0.55;;;;;;;;;;5093156;28;20115;-16
2021/04/12 13:08:22;;;;;;;0.50;0.47;;;;;;;;;;5093206;28;20008;-16
2021/04/12 13:10:49;;;;;;;0.60;0.50;;;;;;;;;;5093077;28;20042;-16
2021/04/12 13:13:17;;;;;;;2.10;0.50;;;;;;;;;;5093178;28;20107;-16
2021/04/12 13:15:44;;;;;;;0.57;0.40;;;;;;;;;;5092712;28;20039;-16
2021/04/12 13:18:24;;;;;;;0.93;0.47;;;;;;;;;;5092758;28;20012;-17
2021/04/12 13:20:51;;;;;;;3.03;0.43;;;;;;;;;;5092799;28;20116;-16
2021/04/12 13:23:19;;;;;;;0.68;0.40;;;;;;;;;;5092482;28;20486;-16
2021/04/12 13:25:50;;;;;;;0.90;0.60;;;;;;;;;;5092628;28;20043;-17
2021/04/12 13:28:18;;;;;;;0.32;0.30;;;;;;;;;;5092628;28;20031;-17
2021/04/12 13:31:07;;;;;;;0.45;0.40;;;;;;;;;;5091272;28;20043;-17
2021/04/12 13:33:38;;;;;;;0.70;0.40;;;;;;;;;;5084314;28;20036;-16
2021/04/12 13:36:24;;;;;;;0.43;0.43;;;;;;;;;;5092815;28;20028;-17
2021/04/12 13:38:59;;;;;;;1.02;0.93;;;;;;;;;;5090076;28;20043;-15
2021/04/12 13:41:27;;;;;;;0.30;0.30;;;;;;;;;;5092825;28;20020;-17
2021/04/12 13:43:55;;;;;;;0.90;0.50;;;;;;;;;;5092464;28;20020;-16
2021/04/12 13:46:20;;;;;;;0.40;0.40;;;;;;;;;;5092228;28;20051;-16
2021/04/12 13:49:04;;;;;;;0.75;0.50;;;;;;;;;;5092411;28;20055;-16
2021/04/12 13:51:40;;;;;;;3.28;0.75;;;;;;;;;;5092304;28;20032;-16
2021/04/12 13:54:17;;;;;;;3.10;0.80;;;;;;;;;;5092656;28;20059;-17
2021/04/12 13:56:47;;;;;;;1.55;1.35;;;;;;;;;;5091488;28;20028;-17
2021/04/12 13:59:16;;;;;;;1.20;0.60;;;;;;;;;;5092275;28;20058;-16
2021/04/12 14:01:48;;;;;;;0.77;0.55;;;;;;;;;;5090537;28;20596;-16
2021/04/12 14:04:16;;;;;;;0.68;0.55;;;;;;;;;;5092356;28;20025;-16
2021/04/12 14:07:00;;;;;;;2.58;0.80;;;;;;;;;;5092463;28;20070;-15
2021/04/12 14:09:26;;;;;;;2.88;0.90;;;;;;;;;;5092080;28;20483;-17
2021/04/12 14:12:03;;;;;;;0.98;0.70;;;;;;;;;;5092216;28;20042;-16
2021/04/12 14:14:47;;;;;;;0.75;0.68;;;;;;;;;;5092012;28;20479;-16
2021/04/12 14:17:18;;;;;;;1.55;0.60;;;;;;;;;;5092448;28;20024;-16
2021/04/12 14:19:50;;;;;;;1.83;0.95;;;;;;;;;;5092351;28;20032;-15
2021/04/12 14:22:22;;;;;;;1.43;0.93;;;;;;;;;;5092041;28;20047;-17
2021/04/12 14:24:51;;;;;;;0.93;0.60;;;;;;;;;;5092188;28;20051;-16
2021/04/12 14:27:19;;;;;;;0.98;0.80;;;;;;;;;;5091978;28;20019;-16
2021/04/12 14:29:51;;;;;;;2.33;0.60;;;;;;;;;;5091974;28;20109;-16
2021/04/12 14:32:20;;;;;;;2.65;0.80;;;;;;;;;;5092013;28;20093;-16
2021/04/12 14:35:06;;;;;;;1.67;0.75;;;;;;;;;;5091966;28;20020;-16
2021/04/12 14:37:33;;;;;;;1.02;0.80;;;;;;;;;;5091964;28;20028;-16
2021/04/12 14:40:12;;;;;;;1.67;0.85;;;;;;;;;;5092271;28;20410;-16
2021/04/12 14:42:43;;;;;;;1.10;0.50;;;;;;;;;;5091777;28;20036;-17
2021/04/12 14:45:10;;;;;;;2.22;0.77;;;;;;;;;;5091818;28;20036;-16
2021/04/12 14:47:37;;;;;;;1.35;0.82;;;;;;;;;;5091846;28;20020;-16
2021/04/12 14:50:18;;;;;;;0.80;0.80;;;;;;;;;;5093585;28;20032;-16
2021/04/12 14:52:53;;;;;;;1.30;0.60;;;;;;;;;;5095817;28;20055;-16
2021/04/12 14:55:19;;;;;;;1.40;0.70;;;;;;;;;;5095550;28;20031;-16
2021/04/12 14:57:46;;;;;;;1.98;0.50;;;;;;;;;;5095747;28;20374;-16
2021/04/12 15:00:12;;;;;;;1.85;0.80;;;;;;;;;;5094142;28;20028;-16
2021/04/12 15:02:49;;;;;;;1.15;0.80;;;;;;;;;;5094859;28;20032;-16
2021/04/12 15:05:17;;;;;;;2.28;0.57;;;;;;;;;;5095353;28;20036;-16
2021/04/12 15:07:50;;;;;;;2.28;0.60;;;;;;;;;;5095502;28;20355;-17
2021/04/12 15:10:26;;;;;;;2.47;0.80;;;;;;;;;;5095135;28;20040;-16
2021/04/12 15:12:54;;;;;;;0.98;0.75;;;;;;;;;;5094869;28;20027;-16
2021/04/12 15:15:29;;;;;;;2.05;0.60;;;;;;;;;;5095030;28;20028;-16
2021/04/12 15:17:57;;;;;;;3.60;0.85;;;;;;;;;;5093835;28;20047;-16
2021/04/12 15:20:40;;;;;;;0.70;0.70;;;;;;;;;;5095017;28;20012;-16
2021/04/12 15:23:12;;;;;;;1.05;0.73;;;;;;;;;;5094070;28;20113;-16
2021/04/12 15:25:41;;;;;;;2.30;0.50;;;;;;;;;;5093519;28;20032;-16
2021/04/12 15:28:10;;;;;;;1.15;0.60;;;;;;;;;;5094766;28;20027;-16
2021/04/12 15:30:51;;;;;;;2.58;1.10;;;;;;;;;;5094722;28;20044;-16
2021/04/12 15:33:24;;;;;;;4.65;0.60;;;;;;;;;;5094392;28;20028;-16